Time;durP1;ratioP1;P1;durP2;ratioP2;P2;SDS_P1;SDS_P2;PMS_P1;PMS_P2;Temp;Humidity;BMP_temperature;BMP_pressure;BME280_temperature;BME280_humidity;BME280_pressure;Samples;Min_cycle;Max_cycle;Signal;HPM_P1;HPM_P2
2022/05/27 00:01:22;;;;;;;17.23;5.05;;;14.50;99.90;;;;;;5040314;28;20052;-86
2022/05/27 00:03:48;;;;;;;10.98;3.85;;;;;;;;;;5056839;28;20045;-82
2022/05/27 00:06:15;;;;;;;18.55;4.28;;;;;;;;;;5054750;28;20048;-83
2022/05/27 00:08:41;;;;;;;14.25;3.80;;;;;;;;;;5069749;28;20109;-82
2022/05/27 00:11:07;;;;;;;12.07;4.05;;;;;;;;;;5076688;28;20131;-84
2022/05/27 00:13:33;;;;;;;14.32;3.97;;;;;;;;;;5072315;28;20041;-87
2022/05/27 00:15:59;;;;;;;12.55;4.15;;;;;;;;;;5067044;28;20404;-87
2022/05/27 00:18:25;;;;;;;12.82;3.83;;;;;;;;;;5040435;28;20425;-86
2022/05/27 00:20:51;;;;;;;11.27;3.97;;;;;;;;;;5056188;28;20139;-82
2022/05/27 00:23:18;;;;;;;13.65;3.85;;;14.40;99.90;;;;;;5039716;28;20052;-84
2022/05/27 00:25:45;;;;;;;10.02;3.55;;;;;;;;;;5056336;28;20044;-85
2022/05/27 00:28:11;;;;;;;12.77;4.13;;;;;;;;;;5038837;28;20335;-84
2022/05/27 00:30:37;;;;;;;18.00;4.32;;;;;;;;;;5056544;28;20485;-82
2022/05/27 00:33:03;;;;;;;20.02;4.68;;;;;;;;;;5056050;28;20670;-85
2022/05/27 00:35:29;;;;;;;11.68;3.80;;;;;;;;;;5039131;28;20053;-82
2022/05/27 00:37:56;;;;;;;7.95;3.95;;;;;;;;;;5039636;28;20078;-82
2022/05/27 00:40:23;;;;;;;8.00;4.40;;;14.00;99.90;;;;;;5039508;28;20051;-85
2022/05/27 00:42:50;;;;;;;14.82;3.85;;;;;;;;;;5039718;28;20428;-85
2022/05/27 00:45:18;;;;;;;16.05;3.85;;;;;;;;;;5039594;28;20052;-87
2022/05/27 00:47:46;;;;;;;13.25;3.55;;;;;;;;;;5055290;28;20039;-84
2022/05/27 00:50:14;;;;;;;14.43;5.03;;;;;;;;;;5039361;28;20101;-84
2022/05/27 00:52:41;;;;;;;12.43;4.03;;;13.70;99.90;;;;;;5039055;28;20496;-82
2022/05/27 00:55:10;;;;;;;14.13;3.90;;;;;;;;;;5056032;28;20080;-83
2022/05/27 00:57:39;;;;;;;24.80;4.30;;;;;;;;;;5055659;28;20059;-85
2022/05/27 01:00:16;;;;;;;9.95;3.47;;;;;;;;;;5037811;28;20454;-84
2022/05/27 01:02:42;;;;;;;12.65;3.47;;;;;;;;;;5065681;28;20181;-82
2022/05/27 01:05:10;;;;;;;21.33;4.53;;;;;;;;;;5056254;28;20519;-83
2022/05/27 01:07:36;;;;;;;13.88;3.38;;;;;;;;;;5059085;28;20063;-87
2022/05/27 01:10:06;;;;;;;14.07;3.22;;;13.60;99.90;;;;;;5068458;28;20048;-87
2022/05/27 01:12:46;;;;;;;11.63;3.83;;;13.50;99.90;;;;;;5040568;28;20040;-89
2022/05/27 01:15:15;;;;;;;9.45;3.15;;;;;;;;;;5041112;28;20428;-87
2022/05/27 01:17:57;;;;;;;20.90;3.55;;;;;;;;;;5041042;28;20051;-89
2022/05/27 01:20:42;;;;;;;15.07;3.22;;;;;;;;;;5050430;28;20072;-83
2022/05/27 01:23:14;;;;;;;15.70;3.38;;;;;;;;;;5060469;28;20040;-83
2022/05/27 01:25:50;;;;;;;7.35;2.85;;;;;;;;;;5078825;28;20400;-93
2022/05/27 01:28:16;;;;;;;9.68;3.60;;;;;;;;;;5061670;28;20123;-90
2022/05/27 01:30:56;;;;;;;16.33;3.70;;;13.20;99.90;;;;;;5069876;28;20041;-85
2022/05/27 01:33:55;;;;;;;11.82;4.05;;;13.30;99.90;;;;;;5057079;28;20098;-81
2022/05/27 01:36:36;;;;;;;13.57;3.90;;;13.10;99.90;;;;;;4941870;28;20070;-91
2022/05/27 01:39:17;;;;;;;9.10;4.00;;;;;;;;;;4958428;28;20046;-86
2022/05/27 01:41:47;;;;;;;19.63;3.80;;;;;;;;;;4952478;28;20058;-85
2022/05/27 01:44:27;;;;;;;11.73;3.17;;;13.10;99.90;;;;;;4967391;28;20039;-84
2022/05/27 01:46:53;;;;;;;16.85;3.63;;;;;;;;;;4959412;28;20598;-86
2022/05/27 01:49:24;;;;;;;10.27;3.78;;;;;;;;;;4940797;28;20047;-83
2022/05/27 01:52:15;;;;;;;11.98;3.05;;;12.90;99.90;;;;;;4968440;28;20058;-88
2022/05/27 01:54:44;;;;;;;14.88;4.05;;;;;;;;;;4960144;28;20046;-88
2022/05/27 01:57:20;;;;;;;9.73;3.05;;;12.80;99.90;;;;;;4974897;28;20051;-87
2022/05/27 01:59:52;;;;;;;15.55;4.10;;;;;;;;;;4976212;28;20097;-87
2022/05/27 02:02:22;;;;;;;9.70;3.35;;;12.90;99.90;;;;;;4976355;28;20038;-84
2022/05/27 02:05:06;;;;;;;11.23;2.90;;;13.00;99.90;;;;;;4965766;28;20145;-89
2022/05/27 02:07:34;;;;;;;;;;;12.70;99.90;;;;;;4971949;28;20049;-90
2022/05/27 02:10:07;;;;;;;17.35;2.72;;;12.70;99.90;;;;;;4979512;28;20125;-84
2022/05/27 02:13:07;;;;;;;13.07;3.17;;;12.60;99.90;;;;;;5037691;28;20092;-89
2022/05/27 02:15:35;;;;;;;15.40;2.90;;;;;;;;;;5059410;28;20043;-85
2022/05/27 02:18:23;;;;;;;7.28;2.70;;;12.50;99.90;;;;;;5060030;28;20130;-88
2022/05/27 02:20:54;;;;;;;8.07;3.03;;;;;;;;;;5077203;28;20040;-86
2022/05/27 02:23:25;;;;;;;20.08;3.63;;;;;;;;;;5077217;28;20054;-89
2022/05/27 02:25:52;;;;;;;13.63;3.53;;;;;;;;;;5075854;28;20066;-86
2022/05/27 02:28:19;;;;;;;8.25;3.08;;;;;;;;;;5076868;28;20046;-89
2022/05/27 02:30:47;;;;;;;7.68;2.92;;;;;;;;;;5077337;28;20512;-89
2022/05/27 02:36:04;;;;;;;11.65;2.88;;;12.50;99.90;;;;;;5075776;28;20051;-92
2022/05/27 02:38:30;;;;;;;10.85;2.50;;;;;;;;;;5059334;28;20052;-90
2022/05/27 02:40:59;;;;;;;15.98;2.80;;;;;;;;;;5075130;28;20077;-87
2022/05/27 02:43:47;;;;;;;13.35;3.80;;;12.30;99.90;;;;;;5070038;28;20488;-81
2022/05/27 02:46:29;;;;;;;12.65;2.67;;;12.40;99.90;;;;;;5065844;28;20063;-91
2022/05/27 02:49:18;;;;;;;18.50;3.25;;;12.30;99.90;;;;;;5071802;28;20047;-91
2022/05/27 02:51:54;;;;;;;12.95;3.20;;;;;;;;;;5057544;28;20487;-83
2022/05/27 02:54:23;;;;;;;10.40;2.85;;;;;;;;;;5073404;28;20048;-83
2022/05/27 02:56:52;;;;;;;10.60;2.85;;;;;;;;;;5057194;28;20078;-94
2022/05/27 02:59:18;;;;;;;9.18;3.00;;;;;;;;;;5058507;28;20040;-94
2022/05/27 03:01:47;;;;;;;10.93;3.03;;;12.20;99.90;;;;;;5074822;28;20044;-91
2022/05/27 03:04:13;;;;;;;7.55;3.00;;;;;;;;;;5074967;28;20427;-83
2022/05/27 03:06:49;;;;;;;7.25;2.78;;;;;;;;;;5070534;28;20123;-85
2022/05/27 03:09:21;;;;;;;8.27;2.90;;;;;;;;;;5072394;28;20071;-84
2022/05/27 03:12:05;;;;;;;13.63;3.00;;;;;;;;;;5054255;28;20048;-86
2022/05/27 03:14:37;;;;;;;5.47;3.10;;;;;;;;;;5055700;28;20050;-87
2022/05/27 03:17:36;;;;;;;12.65;3.80;;;;;;;;;;5072604;28;20040;-91
2022/05/27 03:20:09;;;;;;;12.43;3.40;;;;;;;;;;4972560;28;20070;-85
2022/05/27 03:23:04;;;;;;;18.80;3.22;;;12.00;99.90;;;;;;4955822;28;20065;-86
2022/05/27 03:25:36;;;;;;;8.38;3.28;;;;;;;;;;4977671;28;20081;-87
2022/05/27 03:28:02;;;;;;;13.70;3.50;;;;;;;;;;4958728;28;20039;-92
2022/05/27 03:30:33;;;;;;;11.25;3.10;;;;;;;;;;4959308;28;20066;-91
2022/05/27 03:33:06;;;;;;;12.43;3.38;;;;;;;;;;4958935;28;20050;-85
2022/05/27 03:35:34;;;;;;;14.73;2.70;;;;;;;;;;4950538;28;20050;-85
2022/05/27 03:38:00;;;;;;;14.88;2.83;;;;;;;;;;4977705;28;20193;-90
2022/05/27 03:40:33;;;;;;;10.18;2.63;;;;;;;;;;4977242;28;20499;-90
2022/05/27 03:43:01;;;;;;;5.97;2.78;;;;;;;;;;4962083;28;20136;-93
2022/05/27 03:45:27;;;;;;;9.00;3.03;;;;;;;;;;4959539;28;20432;-89
2022/05/27 03:47:53;;;;;;;10.50;2.60;;;;;;;;;;4955985;28;20039;-90
2022/05/27 03:50:24;;;;;;;7.75;2.50;;;11.70;99.90;;;;;;4955135;28;20050;-85
2022/05/27 03:52:52;;;;;;;20.40;3.65;;;;;;;;;;4975721;28;20130;-88
2022/05/27 03:55:19;;;;;;;10.57;3.78;;;;;;;;;;4993242;28;20057;-91
2022/05/27 03:57:45;;;;;;;15.52;3.95;;;;;;;;;;5076094;28;20078;-83
2022/05/27 04:00:12;;;;;;;9.93;3.00;;;;;;;;;;5059550;28;20113;-88
2022/05/27 04:02:38;;;;;;;9.40;2.80;;;;;;;;;;5076233;28;20032;-84
2022/05/27 04:05:05;;;;;;;11.90;3.78;;;;;;;;;;5078656;28;20116;-88
2022/05/27 04:07:31;;;;;;;15.02;2.33;;;;;;;;;;5065934;28;20074;-91
2022/05/27 04:09:57;;;;;;;7.50;3.00;;;;;;;;;;5064523;28;20468;-85
2022/05/27 04:12:23;;;;;;;10.57;3.45;;;;;;;;;;5063471;28;20071;-83
2022/05/27 04:14:50;;;;;;;8.02;2.67;;;;;;;;;;5082597;28;20044;-89
2022/05/27 04:17:30;;;;;;;6.20;2.65;;;;;;;;;;5083026;28;20051;-90
2022/05/27 04:19:57;;;;;;;10.13;3.30;;;;;;;;;;5084816;28;20047;-89
2022/05/27 04:22:23;;;;;;;12.77;3.17;;;;;;;;;;5081442;28;20127;-86
2022/05/27 04:24:49;;;;;;;12.05;2.97;;;;;;;;;;5077966;28;20032;-81
2022/05/27 04:27:17;;;;;;;7.43;3.03;;;;;;;;;;5075079;28;20040;-81
2022/05/27 04:29:45;;;;;;;10.18;3.78;;;;;;;;;;5055482;28;20403;-82
2022/05/27 04:32:11;;;;;;;15.18;3.10;;;;;;;;;;5075176;28;20475;-81
2022/05/27 04:34:38;;;;;;;9.52;2.80;;;;;;;;;;5074420;28;20676;-84
2022/05/27 04:37:04;;;;;;;14.60;3.50;;;;;;;;;;5039014;28;20539;-82
2022/05/27 04:39:30;;;;;;;11.77;3.40;;;;;;;;;;5052213;28;20048;-81
2022/05/27 04:41:56;;;;;;;12.57;3.25;;;;;;;;;;5036450;28;20068;-82
2022/05/27 04:44:23;;;;;;;13.70;3.65;;;;;;;;;;5038964;28;20045;-83
2022/05/27 04:46:49;;;;;;;8.65;2.75;;;;;;;;;;5052884;28;20067;-82
2022/05/27 04:52:00;;;;;;;11.80;2.38;;;;;;;;;;5074793;28;20059;-81
2022/05/27 04:54:26;;;;;;;15.05;4.07;;;;;;;;;;5073650;28;20036;-81
2022/05/27 04:56:53;;;;;;;7.15;2.40;;;;;;;;;;5071070;28;20519;-83
2022/05/27 04:59:19;;;;;;;13.45;3.00;;;;;;;;;;5075185;28;20036;-82
2022/05/27 05:01:45;;;;;;;17.33;2.83;;;;;;;;;;5057435;28;20093;-82
2022/05/27 05:04:11;;;;;;;14.75;2.95;;;;;;;;;;5039588;28;20044;-82
2022/05/27 05:06:37;;;;;;;10.45;2.72;;;;;;;;;;5055031;28;20044;-83
2022/05/27 05:09:03;;;;;;;12.30;2.78;;;;;;;;;;5038544;28;20377;-81
2022/05/27 05:11:29;;;;;;;19.20;3.28;;;;;;;;;;5038412;28;20055;-81
2022/05/27 05:13:55;;;;;;;13.60;2.92;;;;;;;;;;5044547;28;20120;-81
2022/05/27 05:16:21;;;;;;;11.77;3.03;;;;;;;;;;5072302;28;20136;-82
2022/05/27 05:18:47;;;;;;;11.45;3.15;;;;;;;;;;5058272;28;20048;-82
2022/05/27 05:21:15;;;;;;;8.65;3.17;;;;;;;;;;5075163;28;20307;-83
2022/05/27 05:23:41;;;;;;;8.18;2.75;;;;;;;;;;5056581;28;20048;-83
2022/05/27 05:26:07;;;;;;;8.98;2.55;;;;;;;;;;5074523;28;20160;-82
2022/05/27 05:28:33;;;;;;;11.18;3.10;;;;;;;;;;5055780;28;20039;-83
2022/05/27 05:30:59;;;;;;;9.50;2.90;;;;;;;;;;5038066;28;20048;-82
2022/05/27 05:33:25;;;;;;;9.90;3.10;;;;;;;;;;5049289;28;20404;-82
2022/05/27 05:35:51;;;;;;;13.98;3.28;;;;;;;;;;5055019;28;20536;-81
2022/05/27 05:38:19;;;;;;;12.50;2.63;;;;;;;;;;5057149;28;20047;-81
2022/05/27 05:40:46;;;;;;;14.82;3.50;;;12.20;99.90;;;;;;5057297;28;20043;-82
2022/05/27 05:43:13;;;;;;;8.13;2.60;;;;;;;;;;5043428;28;20074;-83
2022/05/27 05:45:39;;;;;;;12.90;3.53;;;;;;;;;;5070378;28;20181;-82
2022/05/27 05:48:05;;;;;;;9.98;3.53;;;;;;;;;;5052361;28;20040;-82
2022/05/27 05:50:33;;;;;;;13.40;3.38;;;;;;;;;;5041008;28;20044;-82
2022/05/27 05:52:59;;;;;;;14.50;2.80;;;;;;;;;;5054199;28;20536;-83
2022/05/27 05:55:25;;;;;;;26.70;3.97;;;;;;;;;;5056807;28;20496;-82
2022/05/27 05:57:51;;;;;;;11.18;3.50;;;;;;;;;;5038105;28;20044;-81
2022/05/27 06:00:22;;;;;;;9.85;3.55;;;;;;;;;;5037850;28;20086;-81
2022/05/27 06:02:48;;;;;;;15.18;3.63;;;;;;;;;;5038271;28;20127;-82
2022/05/27 06:05:14;;;;;;;12.10;3.65;;;;;;;;;;5063392;28;20040;-83
2022/05/27 06:07:41;;;;;;;17.92;3.47;;;;;;;;;;5057906;28;20055;-82
2022/05/27 06:10:08;;;;;;;12.75;3.20;;;12.80;99.90;;;;;;5074778;28;20040;-82
2022/05/27 06:12:35;;;;;;;9.93;3.17;;;12.80;99.90;;;;;;5056666;28;20052;-83
2022/05/27 06:15:03;;;;;;;14.23;3.70;;;12.70;99.90;;;;;;5057812;28;20044;-83
2022/05/27 06:17:29;;;;;;;14.68;3.90;;;;;;;;;;5074303;28;20040;-83
2022/05/27 06:19:55;;;;;;;10.27;3.10;;;;;;;;;;5057654;28;20044;-83
2022/05/27 06:22:21;;;;;;;21.88;3.70;;;;;;;;;;5057282;28;20047;-82
2022/05/27 06:24:47;;;;;;;10.40;2.72;;;;;;;;;;5057360;28;20401;-83
2022/05/27 06:27:13;;;;;;;9.82;2.97;;;;;;;;;;5073275;28;20044;-82
2022/05/27 06:35:08;;;;;;;8.95;2.78;;;;;;;;;;5074010;28;20040;-85
2022/05/27 06:37:35;;;;;;;11.02;2.65;;;;;;;;;;5038258;28;20063;-90
2022/05/27 06:40:01;;;;;;;14.82;2.72;;;;;;;;;;5054769;28;20040;-82
2022/05/27 06:42:27;;;;;;;21.55;4.05;;;;;;;;;;5055013;28;20047;-88
2022/05/27 06:44:53;;;;;;;7.10;2.90;;;;;;;;;;5029549;28;20095;-87
2022/05/27 06:47:19;;;;;;;11.48;3.03;;;;;;;;;;5035555;28;20123;-89
2022/05/27 06:49:45;;;;;;;17.17;3.03;;;;;;;;;;5029407;28;20052;-83
2022/05/27 06:52:13;;;;;;;10.85;3.95;;;12.90;99.90;;;;;;5052679;28;20118;-83
2022/05/27 06:54:41;;;;;;;10.20;2.63;;;;;;;;;;5053442;28;20139;-86
2022/05/27 06:57:07;;;;;;;13.88;3.22;;;;;;;;;;5053289;28;20053;-82
2022/05/27 06:59:33;;;;;;;13.13;3.17;;;;;;;;;;5031364;28;20045;-82
2022/05/27 07:01:59;;;;;;;14.93;2.92;;;;;;;;;;5036581;28;20080;-83
2022/05/27 07:04:25;;;;;;;13.40;3.22;;;;;;;;;;5036101;28;20040;-83
2022/05/27 07:06:52;;;;;;;12.20;3.40;;;;;;;;;;5036539;28;20047;-82
2022/05/27 07:09:22;;;;;;;13.98;3.03;;;;;;;;;;5035279;28;20044;-82
2022/05/27 07:11:49;;;;;;;15.77;3.65;;;;;;;;;;5053161;28;20049;-85
2022/05/27 07:14:16;;;;;;;16.77;2.80;;;;;;;;;;5035610;28;20075;-86
2022/05/27 07:16:42;;;;;;;13.63;2.78;;;13.50;99.90;;;;;;5035934;28;20056;-86
2022/05/27 07:19:09;;;;;;;10.98;3.60;;;;;;;;;;5046503;28;20047;-90
2022/05/27 07:21:43;;;;;;;11.43;3.58;;;13.10;99.90;;;;;;5016389;28;20044;-86
2022/05/27 07:24:11;;;;;;;10.95;3.17;;;;;;;;;;5016752;28;20045;-87
2022/05/27 07:26:38;;;;;;;14.57;2.67;;;13.20;99.90;;;;;;5016468;28;20044;-86
2022/05/27 07:29:05;;;;;;;9.48;3.60;;;13.30;99.90;;;;;;5035006;28;20045;-88
2022/05/27 07:31:31;;;;;;;8.90;3.35;;;;;;;;;;5030614;28;20177;-88
2022/05/27 07:33:58;;;;;;;7.50;2.50;;;;;;;;;;5036475;28;20040;-87
2022/05/27 07:36:24;;;;;;;16.05;3.22;;;;;;;;;;5055448;28;20067;-88
2022/05/27 07:38:52;;;;;;;10.10;3.35;;;;;;;;;;5072788;28;20059;-91
2022/05/27 07:41:19;;;;;;;12.38;4.40;;;;;;;;;;5070937;28;20052;-91
2022/05/27 07:43:45;;;;;;;7.32;3.22;;;;;;;;;;5039728;28;20049;-85
2022/05/27 07:46:12;;;;;;;14.98;3.83;;;;;;;;;;5050487;28;20041;-87
2022/05/27 07:48:38;;;;;;;10.52;4.47;;;;;;;;;;5036765;28;20051;-86
2022/05/27 07:51:04;;;;;;;13.00;3.13;;;;;;;;;;5053449;28;20357;-86
2022/05/27 07:53:30;;;;;;;13.00;3.60;;;;;;;;;;5052631;28;20398;-89
2022/05/27 07:55:56;;;;;;;13.70;2.97;;;;;;;;;;5036399;28;20044;-89
2022/05/27 07:58:23;;;;;;;14.73;2.90;;;;;;;;;;5054062;28;20044;-83
2022/05/27 08:00:49;;;;;;;15.27;3.15;;;;;;;;;;5037646;28;20048;-89
2022/05/27 08:03:18;;;;;;;12.88;3.53;;;;;;;;;;5053359;28;20481;-89
2022/05/27 08:05:44;;;;;;;12.88;3.97;;;;;;;;;;5063095;28;20044;-83
2022/05/27 08:08:10;;;;;;;11.45;2.75;;;;;;;;;;5071410;28;20039;-92
2022/05/27 08:10:37;;;;;;;7.95;3.60;;;13.70;99.90;;;;;;5057547;28;20044;-89
2022/05/27 08:13:04;;;;;;;12.13;3.17;;;;;;;;;;5077867;28;20040;-90
2022/05/27 08:15:30;;;;;;;17.10;1.92;;;;;;;;;;5061376;28;20059;-90
2022/05/27 08:17:56;;;;;;;9.23;2.50;;;;;;;;;;5061160;28;20097;-89
2022/05/27 08:20:24;;;;;;;8.95;2.85;;;;;;;;;;5075768;28;20134;-89
2022/05/27 08:22:50;;;;;;;10.38;2.85;;;;;;;;;;5060382;28;20073;-82
2022/05/27 08:25:17;;;;;;;8.57;3.40;;;;;;;;;;5076685;28;20036;-89
2022/05/27 08:27:43;;;;;;;9.00;2.80;;;13.70;99.90;;;;;;5059360;28;20109;-83
2022/05/27 08:30:10;;;;;;;12.90;2.90;;;;;;;;;;5058489;28;20508;-84
2022/05/27 08:32:37;;;;;;;9.88;2.70;;;;;;;;;;5055154;28;20049;-83
2022/05/27 08:40:44;;;;;;;10.35;3.45;;;14.00;99.90;;;;;;5067697;28;20058;-83
2022/05/27 08:43:10;;;;;;;10.23;3.70;;;;;;;;;;5073830;28;20105;-84
2022/05/27 08:45:44;;;;;;;9.20;2.83;;;;;;;;;;5077328;28;20043;-84
2022/05/27 08:48:11;;;;;;;11.02;3.28;;;;;;;;;;5060120;28;20048;-84
2022/05/27 08:50:38;;;;;;;17.70;3.17;;;;;;;;;;5077184;28;20143;-84
2022/05/27 08:53:23;;;;;;;12.07;3.00;;;;;;;;;;5059350;28;20576;-84
2022/05/27 09:01:29;;;;;;;10.48;3.00;;;14.20;99.90;;;;;;5077146;28;20082;-84
2022/05/27 09:03:55;;;;;;;13.05;3.25;;;;;;;;;;5061746;28;20056;-86
2022/05/27 09:06:33;;;;;;;13.68;3.30;;;14.10;99.90;;;;;;5039591;28;20040;-83
2022/05/27 09:09:01;;;;;;;15.82;3.53;;;14.40;99.90;;;;;;5056485;28;20188;-84
2022/05/27 09:11:40;;;;;;;10.27;3.72;;;;;;;;;;5053822;28;20076;-84
2022/05/27 09:14:20;;;;;;;13.30;2.72;;;14.30;99.90;;;;;;5066628;28;20048;-83
2022/05/27 09:16:47;;;;;;;13.65;2.83;;;;;;;;;;5046499;28;20055;-83
2022/05/27 09:19:23;;;;;;;8.63;2.45;;;14.30;99.90;;;;;;5076715;28;20048;-83
2022/05/27 09:22:15;;;;;;;16.00;3.33;;;14.20;99.90;;;;;;5059220;28;20059;-84
2022/05/27 09:24:54;;;;;;;13.77;2.97;;;;;;;;;;5052291;28;20040;-84
2022/05/27 09:27:40;;;;;;;10.45;2.53;;;14.10;99.90;;;;;;5058538;28;20637;-84
2022/05/27 09:30:10;;;;;;;6.32;2.70;;;14.20;99.90;;;;;;5059022;28;20522;-84
2022/05/27 09:32:54;;;;;;;21.10;3.67;;;;;;;;;;5035248;28;20442;-84
2022/05/27 09:35:33;;;;;;;6.05;2.63;;;;;;;;;;5051294;28;20582;-84
2022/05/27 09:38:01;;;;;;;12.02;2.95;;;;;;;;;;5058741;28;20063;-83
2022/05/27 09:40:39;;;;;;;16.65;3.63;;;;;;;;;;5075111;28;20056;-83
2022/05/27 09:43:13;;;;;;;13.98;3.95;;;;;;;;;;5059313;28;20047;-84
2022/05/27 09:45:43;;;;;;;11.52;3.63;;;;;;;;;;5055727;28;20531;-85
2022/05/27 09:48:11;;;;;;;14.52;2.85;;;;;;;;;;5075454;28;20442;-83
2022/05/27 09:50:40;;;;;;;12.45;2.92;;;;;;;;;;5059280;28;20044;-84
2022/05/27 09:53:06;;;;;;;12.65;4.30;;;;;;;;;;5059613;28;20048;-83
2022/05/27 09:55:38;;;;;;;11.05;3.05;;;;;;;;;;5074882;28;20131;-84
2022/05/27 09:58:06;;;;;;;14.38;2.75;;;14.60;99.90;;;;;;5074432;28;20044;-84
2022/05/27 10:00:37;;;;;;;14.52;2.95;;;;;;;;;;5057929;28;20048;-84
2022/05/27 10:03:23;;;;;;;13.25;3.45;;;;;;;;;;5061911;28;20095;-82
2022/05/27 10:06:01;;;;;;;11.10;2.72;;;;;;;;;;5079275;28;20044;-87
2022/05/27 10:08:39;;;;;;;11.40;3.15;;;14.60;99.90;;;;;;5065612;28;20395;-84
2022/05/27 10:11:13;;;;;;;10.85;3.25;;;14.60;99.90;;;;;;5080084;28;20079;-88
2022/05/27 10:13:41;;;;;;;9.52;3.38;;;;;;;;;;5078814;28;20052;-88
2022/05/27 10:16:30;;;;;;;15.75;2.83;;;14.50;99.90;;;;;;5052820;28;20044;-86
2022/05/27 10:19:22;;;;;;;17.33;3.10;;;;;;;;;;5051517;28;20456;-84
2022/05/27 10:22:19;;;;;;;8.80;2.60;;;14.70;99.90;;;;;;5040997;28;20056;-85
2022/05/27 10:24:54;;;;;;;11.80;2.75;;;14.90;99.90;;;;;;5060516;28;22124;-88
2022/05/27 10:27:23;;;;;;;10.35;2.22;;;;;;;;;;5054536;28;20048;-88
2022/05/27 10:29:53;;;;;;;15.90;4.15;;;14.90;99.90;;;;;;5061266;28;20072;-90
2022/05/27 10:32:37;;;;;;;11.23;2.78;;;;;;;;;;5044611;28;20504;-87
2022/05/27 10:35:30;;;;;;;12.75;3.38;;;;;;;;;;5061273;28;20127;-85
2022/05/27 10:38:14;;;;;;;11.77;2.97;;;;;;;;;;5061196;28;20052;-85
2022/05/27 10:41:11;;;;;;;10.35;3.70;;;14.80;99.90;;;;;;5055536;28;20127;-85
2022/05/27 10:44:15;;;;;;;12.52;2.30;;;14.60;99.90;;;;;;5080620;28;20036;-85
2022/05/27 10:46:45;;;;;;;17.05;3.42;;;;;;;;;;4975523;28;20495;-85
2022/05/27 10:49:29;;;;;;;9.48;3.72;;;;;;;;;;4975321;28;20145;-85
2022/05/27 10:52:04;;;;;;;8.52;2.30;;;;;;;;;;4974310;28;20054;-85
2022/05/27 10:54:36;;;;;;;8.65;3.08;;;;;;;;;;4974015;28;20408;-84
2022/05/27 11:03:59;;;;;;;13.70;2.75;;;15.00;99.90;;;;;;4974652;28;20124;-85
2022/05/27 11:06:51;;;;;;;22.33;3.67;;;14.70;99.90;;;;;;4933149;29;20407;-86
2022/05/27 11:09:17;;;;;;;14.45;2.90;;;;;;;;;;4951109;29;20047;-86
2022/05/27 11:12:06;;;;;;;10.82;3.22;;;14.50;99.90;;;;;;4947737;29;20054;-84
2022/05/27 11:15:12;;;;;;;15.98;2.80;;;14.70;99.90;;;;;;4920265;29;20091;-86
2022/05/27 11:17:43;;;;;;;22.20;3.78;;;14.70;99.90;;;;;;4919561;29;20055;-85
2022/05/27 11:20:28;;;;;;;13.00;2.42;;;14.60;99.90;;;;;;4957350;28;20049;-87
2022/05/27 11:23:03;;;;;;;11.60;3.20;;;;;;;;;;5031796;28;20556;-86
2022/05/27 11:25:33;;;;;;;17.85;3.35;;;;;;;;;;5007043;28;20399;-83
2022/05/27 11:27:59;;;;;;;11.90;2.90;;;;;;;;;;5012371;28;20127;-87
2022/05/27 11:30:26;;;;;;;12.35;3.03;;;;;;;;;;5016879;28;20587;-86
2022/05/27 11:33:06;;;;;;;9.43;2.53;;;14.50;99.90;;;;;;5032019;28;20057;-87
2022/05/27 11:35:50;;;;;;;10.18;3.10;;;;;;;;;;5014011;28;20053;-86
2022/05/27 11:38:27;;;;;;;;;;;14.70;99.90;;;;;;5032197;28;20118;-87
2022/05/27 11:40:53;;;;;;;12.02;2.83;;;;;;;;;;5014679;28;19920;-86
2022/05/27 11:43:22;;;;;;;14.18;3.45;;;;;;;;;;5040887;28;20058;-83
2022/05/27 11:45:57;;;;;;;15.50;3.28;;;;;;;;;;5036077;28;20044;-85
2022/05/27 11:48:34;;;;;;;8.85;2.80;;;;;;;;;;5060370;28;20041;-84
2022/05/27 11:51:20;;;;;;;10.02;3.85;;;;;;;;;;5070476;28;20045;-84
2022/05/27 11:53:52;;;;;;;9.23;3.53;;;;;;;;;;5066669;28;20044;-83
2022/05/27 11:56:18;;;;;;;9.93;2.70;;;14.80;99.90;;;;;;5054919;28;20531;-86
2022/05/27 11:58:49;;;;;;;11.75;3.28;;;;;;;;;;5051420;28;20132;-82
2022/05/27 12:01:18;;;;;;;10.98;2.78;;;;;;;;;;5072670;28;20109;-83
2022/05/27 12:03:49;;;;;;;13.60;2.60;;;;;;;;;;5068602;28;20127;-84
2022/05/27 12:06:20;;;;;;;13.95;3.80;;;14.80;99.90;;;;;;5071316;28;20052;-83
2022/05/27 12:08:50;;;;;;;13.57;2.88;;;;;;;;;;5071576;28;20535;-86
2022/05/27 12:11:22;;;;;;;9.48;3.05;;;;;;;;;;5054992;28;20040;-86
2022/05/27 12:14:02;;;;;;;8.55;2.70;;;;;;;;;;5054540;28;20049;-86
2022/05/27 12:16:32;;;;;;;10.15;3.00;;;14.40;99.90;;;;;;5044666;28;20048;-87
2022/05/27 12:19:10;;;;;;;10.18;2.17;;;;;;;;;;5072285;28;20052;-86
2022/05/27 12:21:41;;;;;;;11.23;2.95;;;;;;;;;;5054657;28;20048;-88
2022/05/27 12:24:23;;;;;;;18.08;3.60;;;14.20;99.90;;;;;;5072098;28;20101;-87
2022/05/27 12:26:53;;;;;;;12.07;3.05;;;;;;;;;;5055207;28;20044;-84
2022/05/27 12:29:21;;;;;;;15.10;3.60;;;;;;;;;;5071972;28;20481;-83
2022/05/27 12:31:48;;;;;;;7.75;3.00;;;;;;;;;;5053628;28;20055;-84
2022/05/27 12:34:26;;;;;;;22.67;4.40;;;;;;;;;;5055608;28;20041;-84
2022/05/27 12:36:58;;;;;;;10.05;3.50;;;;;;;;;;5061540;28;20128;-86
2022/05/27 12:39:26;;;;;;;11.35;3.30;;;14.10;99.90;;;;;;5050293;28;20048;-84
2022/05/27 12:42:08;;;;;;;14.43;3.40;;;;;;;;;;5055193;28;20413;-87
2022/05/27 12:44:34;;;;;;;9.70;3.08;;;;;;;;;;5051047;28;20068;-87
2022/05/27 12:47:02;;;;;;;9.48;2.60;;;;;;;;;;5067291;28;20175;-83
2022/05/27 12:49:28;;;;;;;14.48;3.05;;;;;;;;;;5054094;28;20036;-87
2022/05/27 12:51:54;;;;;;;8.25;3.70;;;;;;;;;;5067988;28;20044;-86
2022/05/27 12:54:39;;;;;;;7.65;2.55;;;;;;;;;;5078732;28;20044;-91
2022/05/27 13:00:55;;;;;;;10.95;4.07;;;;;;;;;;5074574;28;20408;-87
2022/05/27 13:03:33;;;;;;;11.98;2.75;;;;;;;;;;5073050;28;20052;-86
2022/05/27 13:06:17;;;;;;;11.85;3.05;;;;;;;;;;5055487;28;20147;-87
2022/05/27 13:08:43;;;;;;;10.65;3.25;;;;;;;;;;5074324;28;20044;-87
2022/05/27 13:11:35;;;;;;;12.90;3.45;;;14.20;99.90;;;;;;5060571;28;20063;-89
2022/05/27 13:14:04;;;;;;;8.23;2.67;;;;;;;;;;5066787;28;20048;-88
2022/05/27 13:16:30;;;;;;;11.95;2.88;;;;;;;;;;5056772;28;20044;-83
2022/05/27 13:19:05;;;;;;;10.68;3.20;;;14.50;99.90;;;;;;5063050;28;20043;-87
2022/05/27 13:21:46;;;;;;;7.13;3.30;;;;;;;;;;5072888;28;20051;-87
2022/05/27 13:24:12;;;;;;;8.35;2.70;;;;;;;;;;5042224;28;20044;-89
2022/05/27 13:26:46;;;;;;;10.80;3.53;;;;;;;;;;5070987;28;20093;-87
2022/05/27 13:29:21;;;;;;;17.33;3.42;;;;;;;;;;5057018;28;20044;-84
2022/05/27 13:31:51;;;;;;;11.60;2.85;;;14.30;99.90;;;;;;5057131;28;20048;-87
2022/05/27 13:34:19;;;;;;;18.08;3.20;;;;;;;;;;5055844;28;20075;-86
2022/05/27 13:37:00;;;;;;;7.47;3.28;;;14.50;99.90;;;;;;5070843;28;20130;-87
2022/05/27 13:39:43;;;;;;;9.48;2.40;;;14.70;99.90;;;;;;5053605;28;20185;-86
2022/05/27 13:42:11;;;;;;;9.48;3.00;;;14.30;99.90;;;;;;5067280;28;20044;-86
2022/05/27 13:44:40;;;;;;;10.30;3.72;;;;;;;;;;5071033;28;20049;-86
2022/05/27 13:47:08;;;;;;;9.80;3.20;;;;;;;;;;5059532;28;20514;-85
2022/05/27 13:49:39;;;;;;;9.68;2.95;;;;;;;;;;5051664;28;20044;-85
2022/05/27 13:52:19;;;;;;;6.15;3.33;;;;;;;;;;5050703;28;20040;-86
2022/05/27 13:54:45;;;;;;;9.70;2.50;;;;;;;;;;5055727;28;20043;-84
2022/05/27 13:57:14;;;;;;;8.05;3.30;;;;;;;;;;5050123;28;20488;-88
2022/05/27 13:59:47;;;;;;;7.65;2.65;;;15.00;99.90;;;;;;5053740;28;20492;-84
2022/05/27 14:02:36;;;;;;;9.20;2.70;;;14.90;99.90;;;;;;5070065;28;20147;-87
2022/05/27 14:05:04;;;;;;;11.82;3.17;;;;;;;;;;5073367;28;20330;-88
2022/05/27 14:07:44;;;;;;;19.08;3.63;;;;;;;;;;5048902;28;20190;-83
2022/05/27 14:10:22;;;;;;;13.85;3.25;;;14.70;99.90;;;;;;5033957;28;20215;-86
2022/05/27 14:12:48;;;;;;;9.50;2.60;;;;;;;;;;5054641;28;20048;-82
2022/05/27 14:15:14;;;;;;;11.40;2.50;;;;;;;;;;5057069;28;20448;-84
2022/05/27 14:17:42;;;;;;;15.35;5.07;;;;;;;;;;5056548;28;20043;-81
2022/05/27 14:20:12;;;;;;;8.90;2.30;;;14.70;99.90;;;;;;5056081;28;20547;-84
2022/05/27 14:22:51;;;;;;;6.25;2.15;;;15.00;99.90;;;;;;5054020;28;20040;-84
2022/05/27 14:25:23;;;;;;;9.63;2.50;;;;;;;;;;5054259;28;20089;-83
2022/05/27 14:27:52;;;;;;;9.38;3.25;;;;;;;;;;5055209;28;20056;-81
2022/05/27 14:30:22;;;;;;;19.02;2.83;;;15.60;99.90;;;;;;5072298;28;20040;-84
2022/05/27 14:32:48;;;;;;;17.23;2.38;;;;;;;;;;5065232;28;20148;-82
2022/05/27 14:35:20;;;;;;;11.32;2.90;;;15.30;99.90;;;;;;5038535;28;20074;-85
2022/05/27 14:37:48;;;;;;;8.73;2.38;;;;;;;;;;5073356;28;20140;-86
2022/05/27 14:40:21;;;;;;;7.78;2.55;;;;;;;;;;5073976;28;20412;-86
2022/05/27 14:42:48;;;;;;;15.57;3.55;;;;;;;;;;5069402;28;20492;-84
2022/05/27 14:45:31;;;;;;;6.82;2.20;;;;;;;;;;5056627;28;20539;-87
2022/05/27 14:47:58;;;;;;;10.75;3.15;;;;;;;;;;5055569;28;20119;-84
2022/05/27 14:50:32;;;;;;;16.00;3.22;;;;;;;;;;5072802;28;20044;-86
2022/05/27 14:53:04;;;;;;;10.65;2.80;;;;;;;;;;5045657;28;20132;-86
2022/05/27 14:55:36;;;;;;;12.75;2.50;;;14.70;99.90;;;;;;5070796;28;20103;-83
2022/05/27 14:58:07;;;;;;;13.38;2.70;;;;;;;;;;5056211;28;20055;-87
2022/05/27 15:00:36;;;;;;;15.80;2.90;;;;;;;;;;5054509;28;20044;-85